Time;durP1;ratioP1;P1;durP2;ratioP2;P2;SDS_P1;SDS_P2;PMS_P1;PMS_P2;Temp;Humidity;BMP_temperature;BMP_pressure;BME280_temperature;BME280_humidity;BME280_pressure;Samples;Min_cycle;Max_cycle;Signal;HPM_P1;HPM_P2
2021/08/31 00:01:36;;;;;;;1.90;1.42;;;;;;;13.28;100.00;97875.03;4997198;28;20034;-81
2021/08/31 00:04:01;;;;;;;2.55;1.92;;;;;;;13.21;100.00;97869.19;4997861;28;20056;-82
2021/08/31 00:06:27;;;;;;;4.38;1.50;;;;;;;13.28;100.00;97885.22;4997523;28;20026;-81
2021/08/31 00:08:52;;;;;;;2.95;1.73;;;;;;;13.23;100.00;97877.91;4997447;28;20040;-83
2021/08/31 00:11:20;;;;;;;2.72;1.80;;;;;;;13.15;100.00;97884.19;4997721;28;20034;-82
2021/08/31 00:13:45;;;;;;;2.08;1.67;;;;;;;13.09;100.00;97879.13;4997409;28;20052;-83
2021/08/31 00:16:11;;;;;;;7.05;1.63;;;;;;;13.18;100.00;97886.31;4997436;28;20053;-82
2021/08/31 00:18:36;;;;;;;2.03;1.55;;;;;;;13.07;100.00;97873.09;5014503;28;20038;-82
2021/08/31 00:21:02;;;;;;;4.07;1.77;;;;;;;13.00;100.00;97889.22;4997418;28;20034;-80
2021/08/31 00:23:27;;;;;;;6.57;2.45;;;;;;;12.84;100.00;97881.34;5014876;28;20063;-81
2021/08/31 00:25:53;;;;;;;3.15;1.70;;;;;;;13.00;100.00;97886.47;4997079;28;20375;-84
2021/08/31 00:28:22;;;;;;;3.80;1.60;;;;;;;13.08;100.00;97880.22;4997705;28;20057;-83
2021/08/31 00:30:48;;;;;;;1.80;1.55;;;;;;;13.02;100.00;97875.97;4997688;28;20033;-82
2021/08/31 00:33:14;;;;;;;1.60;1.45;;;;;;;13.03;100.00;97878.41;4997664;28;20033;-83
2021/08/31 00:35:39;;;;;;;2.47;1.70;;;;;;;13.05;100.00;97889.91;4997596;28;20030;-84
2021/08/31 00:38:05;;;;;;;6.80;1.80;;;;;;;12.92;100.00;97895.44;5016041;28;20534;-83
2021/08/31 00:40:31;;;;;;;3.67;2.20;;;;;;;12.92;100.00;97900.94;4997408;28;20026;-82
2021/08/31 00:42:56;;;;;;;2.45;1.75;;;;;;;12.86;100.00;97901.06;4996744;28;20379;-83
2021/08/31 00:45:22;;;;;;;1.90;1.65;;;;;;;12.83;100.00;97893.47;4997039;28;20026;-84
2021/08/31 00:47:48;;;;;;;5.72;1.85;;;;;;;12.62;100.00;97891.50;5015493;28;20064;-82
2021/08/31 00:50:16;;;;;;;2.03;1.83;;;;;;;12.73;100.00;97899.19;4995582;28;20068;-80
2021/08/31 00:52:42;;;;;;;4.85;2.10;;;;;;;12.65;100.00;97899.13;4995934;28;20026;-82
2021/08/31 00:55:11;;;;;;;1.83;1.73;;;;;;;12.67;100.00;97899.59;5013477;28;20033;-83
2021/08/31 00:57:41;;;;;;;3.45;1.75;;;;;;;12.54;100.00;97901.28;5013885;28;20100;-82
2021/08/31 01:00:10;;;;;;;2.97;1.42;;;;;;;12.46;100.00;97895.72;5013675;28;20034;-81
2021/08/31 01:02:36;;;;;;;5.28;2.08;;;;;;;12.33;100.00;97897.38;4996330;28;20026;-84
2021/08/31 01:05:02;;;;;;;5.93;1.90;;;;;;;12.33;100.00;97911.91;4996552;28;20037;-80
2021/08/31 01:07:28;;;;;;;3.35;1.77;;;;;;;12.44;100.00;97915.22;4996511;28;20033;-82
2021/08/31 01:09:54;;;;;;;2.42;1.90;;;;;;;12.60;100.00;97908.25;4995968;28;20034;-82
2021/08/31 01:12:20;;;;;;;2.00;1.67;;;;;;;12.55;100.00;97907.56;4995745;28;20501;-82
2021/08/31 01:14:50;;;;;;;1.70;1.60;;;;;;;12.48;100.00;97910.75;4996467;28;20033;-81
2021/08/31 01:17:16;;;;;;;2.83;1.80;;;;;;;12.38;100.00;97910.13;5013422;28;20026;-80
2021/08/31 01:19:41;;;;;;;4.18;1.80;;;;;;;12.42;100.00;97917.47;4995874;28;20040;-82
2021/08/31 01:22:10;;;;;;;2.40;1.50;;;;;;;12.47;100.00;97916.56;5013502;28;20036;-83
2021/08/31 01:24:39;;;;;;;4.65;2.10;;;;;;;12.47;100.00;97919.28;4996139;28;20022;-81
2021/08/31 01:27:04;;;;;;;1.75;1.65;;;;;;;12.44;100.00;97915.22;4995828;28;20483;-80
2021/08/31 01:29:31;;;;;;;1.58;1.48;;;;;;;12.55;100.00;97921.28;5013428;28;20033;-83
2021/08/31 01:31:57;;;;;;;1.35;1.25;;;;;;;12.45;100.00;97922.34;4995859;28;20026;-84
2021/08/31 01:34:23;;;;;;;3.72;1.52;;;;;;;12.53;100.00;97926.28;4996161;28;20029;-83
2021/08/31 01:36:48;;;;;;;2.75;1.58;;;;;;;12.52;100.00;97927.41;5013272;28;20399;-86
2021/08/31 01:39:14;;;;;;;3.10;1.52;;;;;;;12.39;100.00;97926.31;5013251;28;20471;-81
2021/08/31 01:41:40;;;;;;;3.65;1.48;;;;;;;12.40;100.00;97933.44;5013434;28;20036;-84
2021/08/31 01:44:05;;;;;;;2.13;1.67;;;;;;;12.43;100.00;97927.31;4995696;28;20026;-83
2021/08/31 01:46:31;;;;;;;3.88;1.30;;;;;;;12.38;100.00;97938.38;4995358;28;20549;-84
2021/08/31 01:48:57;;;;;;;2.08;1.40;;;;;;;12.36;100.00;97940.63;4995118;28;20058;-81
2021/08/31 01:51:23;;;;;;;2.45;1.52;;;;;;;12.11;100.00;97936.50;5013358;28;20034;-82
2021/08/31 01:53:49;;;;;;;2.25;1.52;;;;;;;12.03;100.00;97934.47;4995315;28;20084;-80
2021/08/31 01:56:16;;;;;;;2.28;1.60;;;;;;;12.09;100.00;97940.66;4995572;28;20483;-82
2021/08/31 01:58:41;;;;;;;1.98;1.65;;;;;;;12.12;100.00;97934.56;5012904;28;20037;-84
2021/08/31 02:01:07;;;;;;;2.03;1.48;;;;;;;12.29;100.00;97937.50;4994680;28;20837;-84
2021/08/31 02:03:33;;;;;;;3.03;1.63;;;;;;;12.22;100.00;97934.34;4995868;28;20801;-83
2021/08/31 02:05:58;;;;;;;3.13;1.58;;;;;;;12.24;100.00;97929.38;5013364;28;20603;-83
2021/08/31 02:08:24;;;;;;;2.53;1.48;;;;;;;12.25;100.00;97925.50;5020847;28;20033;-82
2021/08/31 02:10:49;;;;;;;6.28;2.25;;;;;;;12.13;100.00;97930.69;5006788;28;20071;-84
2021/08/31 02:13:14;;;;;;;10.35;2.45;;;;;;;12.06;100.00;97922.09;4995538;28;20062;-84
2021/08/31 02:15:40;;;;;;;4.88;1.65;;;;;;;12.07;100.00;97934.66;4995021;28;20026;-82
2021/08/31 02:18:05;;;;;;;2.63;1.67;;;;;;;12.00;100.00;97939.72;5012619;28;20049;-84
2021/08/31 02:20:31;;;;;;;5.95;1.92;;;;;;;11.96;100.00;97936.00;5012579;28;20393;-83
2021/08/31 02:22:57;;;;;;;3.00;1.65;;;;;;;12.03;100.00;97923.50;4995175;28;20021;-82
2021/08/31 02:25:23;;;;;;;4.78;2.58;;;;;;;11.87;100.00;97926.88;4994952;28;20483;-82
2021/08/31 02:27:48;;;;;;;3.33;2.13;;;;;;;11.82;100.00;97936.81;4994918;28;20108;-82
2021/08/31 02:30:14;;;;;;;4.45;2.33;;;;;;;11.96;100.00;97941.47;4994433;28;20056;-82
2021/08/31 02:32:40;;;;;;;3.35;2.25;;;;;;;11.98;100.00;97931.84;5013599;28;20084;-83
2021/08/31 02:35:06;;;;;;;4.47;2.08;;;;;;;11.93;100.00;97936.59;5013235;28;20033;-85
2021/08/31 02:37:31;;;;;;;1.65;1.48;;;;;;;11.90;100.00;97932.56;5012018;28;20064;-82
2021/08/31 02:39:57;;;;;;;2.17;1.85;;;;;;;11.89;100.00;97949.28;4995047;28;20453;-83
2021/08/31 02:42:22;;;;;;;5.10;2.10;;;;;;;11.69;100.00;97934.81;5012634;28;20379;-80
2021/08/31 02:44:48;;;;;;;2.85;1.88;;;;;;;11.63;100.00;97938.78;4994660;28;20064;-84
2021/08/31 02:47:13;;;;;;;6.07;2.28;;;;;;;11.62;100.00;97937.13;4997302;28;20025;-83
2021/08/31 02:49:39;;;;;;;5.68;2.78;;;;;;;11.58;100.00;97936.16;4996606;28;20041;-83
2021/08/31 02:52:05;;;;;;;2.13;1.75;;;;;;;11.56;100.00;97932.88;4996676;28;20494;-85
2021/08/31 02:54:30;;;;;;;3.40;2.20;;;;;;;11.46;100.00;97935.81;4993886;28;20092;-82
2021/08/31 02:56:56;;;;;;;2.00;1.67;;;;;;;11.43;100.00;97932.88;4994381;28;20030;-84
2021/08/31 02:59:21;;;;;;;3.40;2.15;;;;;;;11.52;100.00;97940.09;4994335;28;20763;-82
2021/08/31 03:02:05;;;;;;;3.95;2.03;;;;;;;11.73;100.00;97930.41;4994400;28;20030;-82
2021/08/31 03:04:32;;;;;;;7.50;2.10;;;;;;;11.74;100.00;97940.25;4995189;28;20538;-82
2021/08/31 03:06:58;;;;;;;6.60;2.65;;;;;;;11.59;100.00;97931.47;4994545;28;20548;-83
2021/08/31 03:09:23;;;;;;;5.72;2.13;;;;;;;11.57;100.00;97939.16;5012311;28;20018;-83
2021/08/31 03:11:49;;;;;;;6.38;2.92;;;;;;;11.60;100.00;97944.03;4994610;28;20036;-84
2021/08/31 03:14:19;;;;;;;8.18;2.47;;;;;;;11.65;100.00;97949.44;5011808;28;20466;-83
2021/08/31 03:16:45;;;;;;;8.45;2.67;;;;;;;11.57;100.00;97940.00;5011525;28;20049;-82
2021/08/31 03:19:11;;;;;;;4.78;3.03;;;;;;;11.62;100.00;97953.59;4994365;28;20066;-82
2021/08/31 03:21:37;;;;;;;7.13;2.17;;;;;;;11.53;100.00;97944.44;5012204;28;20038;-83
2021/08/31 03:24:02;;;;;;;10.00;2.40;;;;;;;11.47;100.00;97942.09;4994257;28;20032;-81
2021/08/31 03:26:28;;;;;;;5.57;2.88;;;;;;;11.50;100.00;97947.78;4994465;28;20053;-82
2021/08/31 03:28:54;;;;;;;4.07;2.70;;;;;;;11.44;100.00;97953.66;5011700;28;20030;-82
2021/08/31 03:31:19;;;;;;;6.68;2.85;;;;;;;11.47;100.00;97953.03;4994090;28;20048;-81
2021/08/31 03:33:45;;;;;;;4.72;1.92;;;;;;;11.45;100.00;97950.63;5011713;28;20036;-81
2021/08/31 03:36:10;;;;;;;4.13;1.92;;;;;;;11.44;100.00;97951.72;4993861;28;20045;-84
2021/08/31 03:38:35;;;;;;;3.03;2.05;;;;;;;11.35;100.00;97949.97;4994891;28;20088;-83
2021/08/31 03:41:01;;;;;;;2.63;2.28;;;;;;;11.33;100.00;97961.25;4997812;28;20026;-81
2021/08/31 03:43:26;;;;;;;4.68;2.10;;;;;;;11.31;100.00;97959.94;4997646;28;20461;-82
2021/08/31 03:45:52;;;;;;;4.13;2.08;;;;;;;11.33;100.00;97955.78;5015246;28;20030;-80
2021/08/31 03:48:17;;;;;;;3.80;1.58;;;;;;;11.28;100.00;97951.19;4996951;28;20041;-81
2021/08/31 03:50:42;;;;;;;2.90;1.73;;;;;;;11.21;100.00;97955.44;4994172;28;20029;-81
2021/08/31 03:53:08;;;;;;;4.38;2.05;;;;;;;11.13;100.00;97958.84;4978840;28;20128;-83
2021/08/31 03:55:33;;;;;;;5.90;2.28;;;;;;;11.05;100.00;97960.34;4994138;28;20026;-82
2021/08/31 03:57:59;;;;;;;3.25;2.03;;;;;;;11.01;100.00;97966.69;4994242;28;20083;-83
2021/08/31 04:00:24;;;;;;;2.58;2.13;;;;;;;11.20;100.00;97967.47;5011440;28;20034;-83
2021/08/31 04:02:50;;;;;;;4.95;3.72;;;;;;;11.27;100.00;97965.19;4994401;28;20021;-82
2021/08/31 04:05:15;;;;;;;3.88;2.05;;;;;;;11.38;100.00;97980.31;4994380;28;20037;-80
2021/08/31 04:07:41;;;;;;;7.00;2.72;;;;;;;11.42;100.00;97986.00;4994442;28;20097;-82
2021/08/31 04:10:06;;;;;;;4.13;2.15;;;;;;;11.45;100.00;97975.28;5011219;28;20496;-84
2021/08/31 04:12:32;;;;;;;2.78;2.08;;;;;;;11.45;100.00;97985.41;5011516;28;21503;-82
2021/08/31 04:14:57;;;;;;;3.03;1.70;;;;;;;11.52;100.00;97985.84;4993862;28;20026;-84
2021/08/31 04:17:23;;;;;;;6.22;2.22;;;;;;;11.77;100.00;97988.97;5011281;28;20026;-83
2021/08/31 04:19:48;;;;;;;12.82;5.10;;;;;;;11.66;100.00;97982.00;4993502;28;20395;-83
2021/08/31 04:22:14;;;;;;;3.00;1.90;;;;;;;11.59;100.00;97975.31;4993985;28;20125;-84
2021/08/31 04:24:39;;;;;;;5.13;2.55;;;;;;;11.61;100.00;97984.03;5012024;28;20478;-84
2021/08/31 04:27:05;;;;;;;5.47;2.35;;;;;;;11.47;100.00;97973.03;5023171;28;20488;-80
2021/08/31 04:29:30;;;;;;;4.10;2.70;;;;;;;11.55;100.00;97991.53;5034140;28;20018;-82
2021/08/31 04:31:56;;;;;;;3.08;1.90;;;;;;;11.66;100.00;97992.97;5034910;28;20029;-83
2021/08/31 04:34:21;;;;;;;2.53;2.03;;;;;;;11.85;100.00;97986.63;5016876;28;20021;-82
2021/08/31 04:36:47;;;;;;;7.00;2.88;;;;;;;11.81;100.00;97997.38;5033729;28;20123;-80
2021/08/31 04:39:12;;;;;;;5.10;3.03;;;;;;;12.01;100.00;97990.72;5015661;28;20025;-81
2021/08/31 04:41:38;;;;;;;3.80;2.45;;;;;;;12.15;100.00;97999.78;5015533;28;20026;-82
2021/08/31 04:44:03;;;;;;;3.72;3.08;;;;;;;11.96;100.00;97993.56;5016287;28;20056;-81
2021/08/31 04:46:29;;;;;;;11.88;4.07;;;;;;;11.78;100.00;97998.81;5016006;28;20032;-79
2021/08/31 04:48:54;;;;;;;8.27;4.38;;;;;;;11.74;100.00;97997.81;5033883;28;20789;-83
2021/08/31 04:51:20;;;;;;;4.82;2.63;;;;;;;11.79;100.00;97991.41;5034002;28;20090;-84
2021/08/31 04:53:45;;;;;;;11.52;3.33;;;;;;;11.80;100.00;97990.28;5033548;28;20061;-83
2021/08/31 04:56:10;;;;;;;9.43;2.45;;;;;;;11.79;100.00;97983.19;5016174;28;20082;-80
2021/08/31 04:58:36;;;;;;;6.63;2.45;;;;;;;12.11;100.00;97979.56;5033225;28;20037;-82
2021/08/31 05:01:01;;;;;;;6.75;3.55;;;;;;;12.31;100.00;97988.19;5033594;28;20026;-84
2021/08/31 05:03:27;;;;;;;6.55;4.53;;;;;;;12.39;100.00;97983.91;5015866;28;20046;-81
2021/08/31 05:05:52;;;;;;;9.43;4.07;;;;;;;12.33;100.00;98001.59;5015609;28;20025;-83
2021/08/31 05:08:18;;;;;;;5.90;4.30;;;;;;;12.28;100.00;97983.31;5033500;28;20052;-83
2021/08/31 05:10:44;;;;;;;12.60;4.35;;;;;;;12.21;100.00;97982.91;5015817;28;20018;-84
2021/08/31 05:13:11;;;;;;;6.07;4.10;;;;;;;12.32;100.00;97989.00;5033434;28;20033;-84
2021/08/31 05:15:37;;;;;;;6.25;4.45;;;;;;;12.32;100.00;97989.00;5016177;28;20017;-85
2021/08/31 05:18:04;;;;;;;9.73;5.60;;;;;;;12.25;100.00;97996.81;5015181;28;20612;-83
2021/08/31 05:20:29;;;;;;;7.22;4.57;;;;;;;12.40;100.00;97991.03;5033252;28;20041;-83
2021/08/31 05:22:55;;;;;;;6.53;4.25;;;;;;;12.41;100.00;97992.63;5014948;28;20025;-77
2021/08/31 05:25:20;;;;;;;5.10;3.95;;;;;;;12.37;100.00;97993.56;5032643;28;20506;-79
2021/08/31 05:27:46;;;;;;;9.77;4.85;;;;;;;12.62;100.00;97995.78;5014874;28;20029;-79
2021/08/31 05:30:12;;;;;;;9.38;4.38;;;;;;;12.36;100.00;97995.50;5014660;28;20072;-80
2021/08/31 05:32:38;;;;;;;12.20;4.57;;;;;;;12.17;100.00;97992.03;5014405;28;20048;-80
2021/08/31 05:35:04;;;;;;;9.13;4.93;;;;;;;12.14;100.00;97995.41;5033616;28;20038;-78
2021/08/31 05:37:29;;;;;;;7.55;4.43;;;;;;;12.24;100.00;97995.22;5013916;28;20490;-79
2021/08/31 05:39:55;;;;;;;11.05;4.95;;;;;;;12.27;100.00;97991.84;5032659;28;20044;-75
2021/08/31 05:42:20;;;;;;;9.70;4.65;;;;;;;12.17;100.00;97992.03;5032226;28;20462;-75
2021/08/31 05:44:46;;;;;;;8.27;6.05;;;;;;;12.27;100.00;97989.09;5014347;28;20025;-75
2021/08/31 05:47:11;;;;;;;8.73;5.43;;;;;;;12.27;100.00;97992.66;5031962;28;20052;-76
2021/08/31 05:49:37;;;;;;;9.05;5.95;;;;;;;12.27;100.00;97997.34;5014163;28;20036;-75
2021/08/31 05:52:03;;;;;;;10.27;6.00;;;;;;;12.20;100.00;97996.91;5031948;28;20470;-76
2021/08/31 05:54:29;;;;;;;8.63;5.53;;;;;;;12.28;100.00;97994.28;5014024;28;20486;-75
2021/08/31 05:56:56;;;;;;;7.53;5.25;;;;;;;12.38;100.00;97993.25;5031737;28;20029;-77
2021/08/31 05:59:22;;;;;;;11.60;6.80;;;;;;;12.38;100.00;97976.78;5014034;28;20030;-75
2021/08/31 06:01:48;;;;;;;11.27;6.55;;;;;;;12.44;100.00;97991.22;5013749;28;20094;-74
2021/08/31 06:04:14;;;;;;;7.40;4.68;;;;;;;12.55;100.00;97987.97;5014229;28;20028;-75
2021/08/31 06:06:39;;;;;;;11.82;5.97;;;;;;;12.50;100.00;97990.78;5013951;28;20116;-76
2021/08/31 06:09:06;;;;;;;11.25;5.18;;;;;;;12.67;100.00;97990.16;5031757;28;20457;-75
2021/08/31 06:11:36;;;;;;;9.05;5.75;;;;;;;12.72;100.00;97999.09;5031778;28;20557;-75
2021/08/31 06:14:02;;;;;;;7.38;5.40;;;;;;;12.60;100.00;97998.81;5013583;28;20359;-81
2021/08/31 06:16:27;;;;;;;10.63;5.30;;;;;;;12.78;100.00;97997.88;5031388;28;20036;-76
2021/08/31 06:18:53;;;;;;;8.95;6.38;;;;;;;12.87;100.00;97998.75;5028674;28;20029;-75
2021/08/31 06:21:18;;;;;;;10.10;6.35;;;;;;;13.01;100.00;97995.16;5031048;28;20033;-75
2021/08/31 06:23:44;;;;;;;12.23;6.43;;;;;;;13.10;100.00;97996.06;5033118;28;20021;-76
2021/08/31 06:26:09;;;;;;;9.95;5.15;;;;;;;13.32;100.00;97985.09;5032950;28;20021;-77
2021/08/31 06:28:35;;;;;;;8.65;6.22;;;;;;;13.72;100.00;97994.28;5042025;28;20474;-77
2021/08/31 06:31:00;;;;;;;11.68;6.68;;;;;;;13.71;100.00;97992.66;5030909;28;20052;-75
2021/08/31 06:33:25;;;;;;;9.43;5.47;;;;;;;13.62;100.00;97987.09;5013430;28;20394;-75
2021/08/31 06:35:51;;;;;;;6.68;5.70;;;;;;;13.46;100.00;97990.53;5015874;28;20465;-75
2021/08/31 06:38:16;;;;;;;9.98;5.28;;;;;;;13.63;100.00;97991.47;5037446;28;20034;-76
2021/08/31 06:40:42;;;;;;;8.57;6.00;;;;;;;13.61;100.00;97985.47;5020532;28;20120;-76
2021/08/31 06:43:08;;;;;;;8.57;5.82;;;;;;;13.60;100.00;97988.53;4998945;28;20092;-75
2021/08/31 06:45:33;;;;;;;8.40;5.57;;;;;;;13.70;100.00;97983.59;5013596;28;20449;-76
2021/08/31 06:47:59;;;;;;;10.50;6.93;;;;;;;14.13;98.34;97986.53;5030421;28;20478;-78
2021/08/31 06:50:25;;;;;;;7.35;4.40;;;;;;;14.42;94.81;97992.34;5011579;28;20021;-75
2021/08/31 06:52:50;;;;;;;5.53;4.95;;;;;;;14.05;96.66;97992.00;5024773;28;20048;-78
2021/08/31 06:55:16;;;;;;;7.32;5.78;;;;;;;14.08;96.09;97996.88;5010944;28;20438;-77
2021/08/31 06:57:42;;;;;;;8.27;6.18;;;;;;;14.39;95.01;98003.19;5019163;28;20033;-75
2021/08/31 07:00:09;;;;;;;7.85;6.13;;;;;;;14.51;93.08;98000.63;5025384;28;20037;-75
2021/08/31 07:02:35;;;;;;;7.28;5.90;;;;;;;14.68;91.24;97994.38;5010766;28;20037;-76
2021/08/31 07:05:00;;;;;;;6.43;5.25;;;;;;;14.75;91.28;98003.78;5028994;28;20512;-76
2021/08/31 07:07:26;;;;;;;8.98;6.07;;;;;;;14.73;91.04;98002.47;5028859;28;20059;-76
2021/08/31 07:09:53;;;;;;;7.95;5.18;;;;;;;15.10;89.25;98003.81;5011143;28;20083;-76
2021/08/31 07:12:21;;;;;;;7.22;6.07;;;;;;;15.17;88.77;98013.22;5010740;28;20469;-76
2021/08/31 07:14:47;;;;;;;7.10;5.63;;;;;;;15.33;87.99;98002.50;5025276;28;20501;-75
2021/08/31 07:17:13;;;;;;;6.35;5.32;;;;;;;15.89;85.00;98005.06;5026528;28;20060;-75
2021/08/31 07:19:39;;;;;;;6.47;5.15;;;;;;;17.22;78.83;98015.63;5010041;28;20026;-75
2021/08/31 07:22:04;;;;;;;6.38;5.75;;;;;;;17.58;75.83;98021.38;5028200;28;20044;-76
2021/08/31 07:24:30;;;;;;;7.50;6.13;;;;;;;16.81;79.49;98017.22;5010280;28;20501;-75
2021/08/31 07:26:55;;;;;;;7.68;6.55;;;;;;;17.09;78.04;98023.03;5010168;28;20026;-77
2021/08/31 07:29:21;;;;;;;7.03;4.88;;;;;;;17.90;76.07;98034.41;5010380;28;20017;-75
2021/08/31 07:31:47;;;;;;;10.80;4.70;;;;;;;19.29;69.18;98032.34;5010379;28;20025;-78
2021/08/31 07:34:12;;;;;;;5.07;4.38;;;;;;;18.49;70.46;98017.44;5009804;28;20074;-76
2021/08/31 07:36:39;;;;;;;8.55;4.93;;;;;;;18.49;71.10;98025.75;5010367;28;20140;-75
2021/08/31 07:39:04;;;;;;;5.60;4.80;;;;;;;19.18;68.74;98026.44;5010620;28;20021;-76
2021/08/31 07:41:30;;;;;;;8.25;4.57;;;;;;;20.01;63.81;98031.28;5011138;28;20406;-76
2021/08/31 07:43:55;;;;;;;5.82;4.57;;;;;;;20.93;59.63;98030.88;5029635;28;20032;-74
2021/08/31 07:46:21;;;;;;;7.18;4.22;;;;;;;21.73;58.23;98033.91;5037739;28;20013;-75
2021/08/31 07:48:47;;;;;;;5.68;3.33;;;;;;;20.44;60.78;98016.56;5045201;28;20030;-75
2021/08/31 07:51:12;;;;;;;8.95;4.20;;;;;;;20.77;59.01;98024.53;5029833;28;20056;-76
2021/08/31 07:53:40;;;;;;;6.80;4.05;;;;;;;20.27;60.45;98034.38;5011234;28;20025;-77
2021/08/31 07:56:06;;;;;;;5.57;4.05;;;;;;;19.93;62.85;98029.47;5011906;28;20036;-75
2021/08/31 07:58:33;;;;;;;5.53;4.40;;;;;;;20.03;62.61;98028.13;5012413;28;20017;-75
2021/08/31 08:00:59;;;;;;;8.85;5.50;;;;;;;19.86;63.78;98026.47;5014991;28;20112;-74
2021/08/31 08:03:25;;;;;;;8.77;4.50;;;;;;;21.77;58.38;98036.78;5031806;28;20112;-76
2021/08/31 08:05:50;;;;;;;6.30;5.28;;;;;;;22.98;54.49;98034.25;5032931;28;20525;-76
2021/08/31 08:08:15;;;;;;;9.15;4.63;;;;;;;23.82;50.95;98031.88;5014580;28;20022;-77
2021/08/31 08:10:41;;;;;;;11.65;5.97;;;;;;;22.85;53.22;98039.22;5014865;28;20030;-76
2021/08/31 08:13:06;;;;;;;6.90;5.07;;;;;;;22.63;55.17;98040.00;4998437;28;20021;-76
2021/08/31 08:15:33;;;;;;;6.88;5.53;;;;;;;23.38;51.69;98040.84;5031686;28;20056;-74
2021/08/31 08:17:59;;;;;;;9.13;5.50;;;;;;;21.43;57.28;98026.47;5012529;28;20090;-76
2021/08/31 08:20:25;;;;;;;5.90;4.75;;;;;;;21.92;55.83;98033.13;5012666;28;20398;-75
2021/08/31 08:22:51;;;;;;;7.38;5.10;;;;;;;22.27;54.63;98038.59;5012504;28;20102;-75
2021/08/31 08:25:16;;;;;;;15.65;6.13;;;;;;;23.09;51.96;98033.22;5030069;28;20123;-75
2021/08/31 08:27:42;;;;;;;8.50;4.03;;;;;;;23.14;52.29;98034.91;5032041;28;20040;-75
2021/08/31 08:30:08;;;;;;;8.43;4.80;;;;;;;23.75;48.83;98029.00;5012619;28;20513;-75
2021/08/31 08:32:34;;;;;;;7.32;4.38;;;;;;;23.80;48.77;98034.25;5011830;28;20048;-77
2021/08/31 08:35:00;;;;;;;7.38;4.75;;;;;;;23.65;49.03;98035.28;5013523;28;20041;-74
2021/08/31 08:37:25;;;;;;;5.72;4.55;;;;;;;24.21;47.85;98033.19;5012028;28;20041;-76
2021/08/31 08:39:51;;;;;;;6.72;4.97;;;;;;;23.89;48.45;98027.19;5030450;28;20045;-75
2021/08/31 08:42:16;;;;;;;9.20;4.30;;;;;;;23.76;48.98;98041.78;5030744;28;20076;-74
2021/08/31 08:44:42;;;;;;;9.15;4.47;;;;;;;24.16;47.47;98036.31;5030501;28;20060;-76
2021/08/31 08:47:08;;;;;;;7.18;4.07;;;;;;;24.53;46.48;98023.09;5014874;28;20033;-75
2021/08/31 08:49:33;;;;;;;5.07;4.32;;;;;;;23.44;48.37;98031.00;5014012;28;20078;-76
2021/08/31 08:52:00;;;;;;;7.25;4.38;;;;;;;23.33;49.50;98038.41;5014368;28;20539;-75
2021/08/31 08:54:26;;;;;;;9.10;4.47;;;;;;;22.52;51.45;98023.13;5015206;28;20029;-75
2021/08/31 08:56:56;;;;;;;6.15;4.30;;;;;;;21.77;54.19;98034.78;5031830;28;20049;-75
2021/08/31 08:59:24;;;;;;;6.90;4.97;;;;;;;22.09;53.34;98040.22;5023561;28;20088;-73
2021/08/31 09:01:54;;;;;;;7.95;5.22;;;;;;;22.49;53.10;98034.22;5015195;28;20036;-75
2021/08/31 09:04:45;;;;;;;5.53;4.07;;;;;;;23.48;50.47;98031.03;5033511;28;20565;-77
2021/08/31 09:07:19;;;;;;;6.30;4.28;;;;;;;24.44;47.37;98030.19;5030401;28;20026;-76
2021/08/31 09:10:08;;;;;;;5.60;3.90;;;;;;;24.91;46.01;98027.47;5011185;28;20490;-76
2021/08/31 09:12:35;;;;;;;5.55;4.38;;;;;;;25.82;43.96;98032.06;5027689;28;20045;-75
2021/08/31 09:15:45;;;;;;;8.77;2.88;;;;;;;25.47;44.30;98037.44;5031743;28;20497;-76
2021/08/31 09:18:19;;;;;;;4.72;3.88;;;;;;;26.49;42.14;98032.28;5009840;28;20041;-79
2021/08/31 09:20:53;;;;;;;4.55;2.75;;;;;;;25.65;43.37;98029.97;5014132;28;20068;-77
2021/08/31 09:23:30;;;;;;;4.00;2.78;;;;;;;27.20;40.91;98026.72;5013655;28;20033;-79
2021/08/31 09:26:33;;;;;;;6.80;2.20;;;;;;;27.01;40.78;98022.31;4993028;28;20025;-77
2021/08/31 09:29:24;;;;;;;11.10;2.88;;;;;;;26.93;40.70;98028.34;5031375;28;20108;-76
2021/08/31 09:31:58;;;;;;;5.05;2.72;;;;;;;28.31;38.28;98026.00;5013951;28;20033;-78
2021/08/31 09:34:53;;;;;;;5.97;2.70;;;;;;;28.50;37.23;98019.03;5014591;28;20029;-76
2021/08/31 09:37:31;;;;;;;3.38;2.28;;;;;;;28.05;38.65;98026.50;4998052;28;20556;-76
2021/08/31 09:40:17;;;;;;;4.88;2.58;;;;;;;28.49;37.34;98023.84;5012869;28;20105;-74
2021/08/31 09:42:53;;;;;;;6.65;1.98;;;;;;;28.12;37.59;98032.94;5011757;28;20033;-77
2021/08/31 09:45:24;;;;;;;3.30;2.00;;;;;;;26.97;39.62;98012.31;5011291;28;20470;-77
2021/08/31 09:47:51;;;;;;;5.22;1.70;;;;;;;28.45;37.33;98023.06;5033991;28;20034;-76
2021/08/31 09:50:39;;;;;;;2.25;1.58;;;;;;;29.11;36.33;98023.78;5013852;28;20064;-77
2021/08/31 09:53:10;;;;;;;7.20;1.77;;;;;;;26.89;40.14;98019.09;5031439;28;20036;-78
2021/08/31 09:55:37;;;;;;;5.20;1.20;;;;;;;24.58;45.22;98001.56;5013568;28;20083;-77
2021/08/31 09:58:16;;;;;;;2.72;1.90;;;;;;;24.45;45.99;98001.88;5012863;28;20764;-76
2021/08/31 10:00:45;;;;;;;4.43;1.52;;;;;;;24.48;46.38;98003.88;5011262;28;20441;-75
2021/08/31 10:03:11;;;;;;;5.50;1.90;;;;;;;23.16;49.06;97999.03;5030624;28;20021;-76
2021/08/31 10:05:39;;;;;;;2.72;1.60;;;;;;;23.58;48.63;97993.28;5031364;28;20326;-75
2021/08/31 10:08:06;;;;;;;2.80;1.73;;;;;;;24.02;47.14;97983.03;5013339;28;20022;-76
2021/08/31 10:10:33;;;;;;;2.95;1.73;;;;;;;23.59;47.54;97986.50;5013799;28;20101;-75
2021/08/31 10:13:06;;;;;;;3.83;1.60;;;;;;;25.14;44.53;97988.03;5039429;28;20493;-75
2021/08/31 10:15:36;;;;;;;5.07;1.83;;;;;;;26.48;41.26;97994.19;5051449;28;20048;-76
2021/08/31 10:18:02;;;;;;;2.65;1.70;;;;;;;26.48;41.50;97982.97;5033451;28;20056;-74
2021/08/31 10:20:29;;;;;;;4.82;1.60;;;;;;;27.78;39.02;97988.84;5050690;28;20024;-75
2021/08/31 10:22:57;;;;;;;2.47;1.73;;;;;;;27.94;38.48;97992.00;5050427;28;20052;-76
2021/08/31 10:25:26;;;;;;;2.78;2.25;;;;;;;26.20;41.16;97980.13;5052411;28;20027;-75
2021/08/31 10:27:54;;;;;;;4.95;2.20;;;;;;;26.73;40.85;97982.97;5032483;28;20436;-74
2021/08/31 10:30:19;;;;;;;3.45;1.80;;;;;;;29.69;35.23;97982.53;5035950;28;20029;-75
2021/08/31 10:32:47;;;;;;;7.63;2.05;;;;;;;29.98;33.74;97980.19;5029429;28;20032;-72
2021/08/31 10:35:42;;;;;;;3.35;2.00;;;;;;;26.95;39.03;97969.75;5012941;28;20418;-74
2021/08/31 10:38:11;;;;;;;4.38;1.95;;;;;;;26.63;40.70;97968.97;5011251;28;20537;-74
2021/08/31 10:40:36;;;;;;;10.45;1.73;;;;;;;26.61;41.08;97967.34;5011308;28;20248;-73
2021/08/31 10:43:04;;;;;;;2.60;1.80;;;;;;;25.49;43.08;97965.88;5029011;28;20116;-74
2021/08/31 10:45:29;;;;;;;3.25;1.52;;;;;;;25.40;42.91;97959.78;5028989;28;20021;-73
2021/08/31 10:47:55;;;;;;;5.35;1.48;;;;;;;25.24;43.77;97956.50;5030090;28;20458;-73
2021/08/31 10:50:23;;;;;;;2.83;1.60;;;;;;;25.71;42.04;97965.94;5028829;28;20083;-74
2021/08/31 10:52:56;;;;;;;4.00;1.75;;;;;;;25.80;42.54;97955.97;5028634;28;20017;-75
2021/08/31 10:55:25;;;;;;;4.75;1.70;;;;;;;25.86;42.51;97950.78;5011318;28;20041;-74
2021/08/31 10:57:53;;;;;;;4.45;2.03;;;;;;;25.56;43.06;97951.84;5010957;28;20390;-73
2021/08/31 11:00:18;;;;;;;4.38;1.88;;;;;;;25.92;42.41;97949.19;5028775;28;20033;-75
2021/08/31 11:02:50;;;;;;;3.35;2.00;;;;;;;25.39;43.50;97952.56;5029799;28;20383;-75
2021/08/31 11:05:21;;;;;;;4.35;1.52;;;;;;;24.94;44.74;97942.72;5011850;28;20025;-75
2021/08/31 11:07:49;;;;;;;2.53;1.45;;;;;;;24.95;44.89;97954.72;5008987;28;20024;-76
2021/08/31 11:10:29;;;;;;;3.85;1.40;;;;;;;24.89;44.40;97950.66;5028804;28;20024;-75
2021/08/31 11:13:16;;;;;;;2.17;1.13;;;;;;;25.24;44.52;97950.09;5030658;28;20025;-75
2021/08/31 11:15:43;;;;;;;3.00;1.70;;;;;;;26.02;43.44;97956.81;5038115;28;20040;-75
2021/08/31 11:18:11;;;;;;;7.00;2.92;;;;;;;26.69;42.22;97973.75;5036014;28;20032;-75
2021/08/31 11:20:38;;;;;;;3.60;1.27;;;;;;;26.53;42.23;97964.94;5011113;28;20037;-74
2021/08/31 11:23:09;;;;;;;2.97;1.08;;;;;;;26.58;42.23;97962.53;5007907;28;20029;-75
2021/08/31 11:25:43;;;;;;;4.85;1.52;;;;;;;25.70;43.92;97955.91;5028950;28;20026;-75
2021/08/31 11:28:13;;;;;;;2.80;2.25;;;;;;;25.31;44.21;97950.91;5035261;28;20057;-76